Contact 2017-01-16T18:42:02+00:00

Contact & Connect

262-AX-PILOT (297-4568) • info@flyaxiom.com

Your Name (required)

Your Email (required)

Your Message

Current METAR

KOGD 191853Z VRB04KT 10SM CLR 24/M02 A2986 RMK AO2 SLP060 T02441017